Time;durP1;ratioP1;P1;durP2;ratioP2;P2;SDS_P1;SDS_P2;PMS_P1;PMS_P2;Temp;Humidity;BMP_temperature;BMP_pressure;BME280_temperature;BME280_humidity;BME280_pressure;Samples;Min_cycle;Max_cycle;Signal;HPM_P1;HPM_P2
2022/08/10 00:01:48;;;;;;;0.50;0.50;;;17.60;57.60;;;18.09;42.70;95823.78;5012470;28;20221;-79
2022/08/10 00:04:21;;;;;;;0.50;0.50;;;17.60;57.70;;;18.07;43.11;95828.50;5012700;28;20206;-78
2022/08/10 00:06:53;;;;;;;0.50;0.50;;;17.60;57.70;;;18.05;42.97;95817.28;5005935;28;20270;-78
2022/08/10 00:09:22;;;;;;;0.50;0.50;;;17.60;58.30;;;18.02;43.22;95821.16;5048781;28;20203;-78
2022/08/10 00:11:50;;;;;;;0.50;0.50;;;17.50;59.30;;;17.98;43.21;95812.03;5031847;28;20219;-78
2022/08/10 00:14:17;;;;;;;0.60;0.60;;;17.50;57.90;;;17.97;43.10;95813.06;5047447;28;20307;-78
2022/08/10 00:16:45;;;;;;;0.70;0.70;;;17.50;58.10;;;17.99;43.40;95823.44;5031954;28;20258;-78
2022/08/10 00:19:13;;;;;;;0.50;0.50;;;17.50;58.20;;;17.97;43.21;95821.00;5013425;28;20235;-78
2022/08/10 00:21:43;;;;;;;0.50;0.50;;;17.50;58.30;;;17.96;43.39;95823.88;5031088;28;20265;-78
2022/08/10 00:24:10;;;;;;;0.40;0.40;;;17.50;58.40;;;17.95;43.79;95824.91;5032023;28;20275;-78
2022/08/10 00:26:37;;;;;;;0.50;0.50;;;17.50;58.40;;;17.91;43.54;95827.16;5030997;28;20299;-78
2022/08/10 00:29:25;;;;;;;0.47;0.47;;;17.40;58.40;;;17.83;43.86;95817.59;5045181;28;20196;-78
2022/08/10 00:31:52;;;;;;;0.50;0.50;;;17.40;58.40;;;17.84;43.70;95821.88;5047667;28;20621;-78
2022/08/10 00:34:26;;;;;;;0.40;0.40;;;17.40;58.50;;;17.82;43.65;95818.66;5063913;28;20277;-78
2022/08/10 00:36:54;;;;;;;0.50;0.50;;;17.30;58.60;;;17.82;44.02;95823.13;5063034;28;20260;-78
2022/08/10 00:39:22;;;;;;;0.50;0.50;;;17.30;58.60;;;17.79;43.80;95820.91;5014051;28;20693;-78
2022/08/10 00:41:50;;;;;;;0.50;0.50;;;17.30;58.70;;;17.72;43.75;95810.34;5064284;28;20270;-78
2022/08/10 00:44:39;;;;;;;0.50;0.50;;;17.20;58.70;;;17.71;43.94;95828.09;5062429;28;20196;-78
2022/08/10 00:47:07;;;;;;;0.50;0.50;;;17.20;58.90;;;17.68;43.92;95814.47;5031631;28;20219;-79
2022/08/10 00:49:55;;;;;;;0.60;0.60;;;17.30;58.90;;;17.63;44.05;95814.28;5002055;28;20200;-78
2022/08/10 00:52:24;;;;;;;0.50;0.50;;;17.20;58.80;;;17.60;44.53;95810.19;5045761;28;20220;-78
2022/08/10 00:54:52;;;;;;;0.50;0.50;;;17.20;59.10;;;17.57;44.42;95819.41;5031146;28;20204;-78
2022/08/10 00:57:20;;;;;;;0.70;0.70;;;17.10;59.00;;;17.51;44.16;95812.28;5031794;28;20682;-78
2022/08/10 00:59:48;;;;;;;0.50;0.50;;;17.10;59.30;;;17.51;44.28;95817.59;5047198;28;20344;-77
2022/08/10 01:02:30;;;;;;;0.50;0.50;;;17.10;59.20;;;17.44;44.76;95812.34;5031219;28;20672;-78
2022/08/10 01:05:07;;;;;;;0.50;0.50;;;17.10;60.20;;;17.45;44.67;95826.41;5014911;28;20238;-78
2022/08/10 01:08:12;;;;;;;0.50;0.50;;;17.00;60.10;;;17.41;44.88;95820.72;5030239;28;20218;-78
2022/08/10 01:11:18;;;;;;;0.50;0.50;;;17.00;60.10;;;17.38;44.65;95820.31;5030387;28;20203;-78
2022/08/10 01:14:11;;;;;;;0.50;0.50;;;17.00;59.60;;;17.37;44.85;95816.88;5026512;28;20220;-78
2022/08/10 01:16:54;;;;;;;0.50;0.50;;;16.90;59.20;;;17.34;44.64;95817.28;5030420;28;20760;-78
2022/08/10 01:19:56;;;;;;;0.43;0.43;;;16.90;60.30;;;17.34;44.91;95816.47;5062865;28;20295;-78
2022/08/10 01:22:53;;;;;;;0.50;0.50;;;16.90;60.00;;;17.29;44.69;95820.56;5030946;28;20592;-78
2022/08/10 01:25:57;;;;;;;0.40;0.40;;;16.90;60.40;;;17.25;45.12;95814.06;5030891;28;20208;-78
2022/08/10 01:29:22;;;;;;;0.50;0.50;;;16.90;60.30;;;17.19;45.15;95806.97;5038507;28;20709;-78
2022/08/10 01:31:53;;;;;;;0.50;0.50;;;16.80;60.10;;;17.18;45.25;95805.34;5027329;28;20581;-78
2022/08/10 01:34:26;;;;;;;0.43;0.43;;;16.80;60.20;;;17.18;45.47;95804.53;5044369;28;20549;-78
2022/08/10 01:37:02;;;;;;;0.57;0.57;;;16.80;60.40;;;17.15;45.53;95797.81;5029620;28;20223;-78
2022/08/10 01:39:38;;;;;;;0.50;0.50;;;16.80;60.90;;;17.14;45.60;95809.44;5064184;28;20235;-79
2022/08/10 01:42:06;;;;;;;0.50;0.50;;;16.70;60.90;;;17.12;45.49;95806.19;5046810;28;20234;-78
2022/08/10 01:44:39;;;;;;;0.40;0.40;;;16.70;60.40;;;17.10;45.61;95806.41;5047586;28;20199;-78
2022/08/10 01:50:06;;;;;;;0.57;0.57;;;16.70;60.90;;;17.06;45.52;95807.03;5024967;28;20200;-77
2022/08/10 01:52:35;;;;;;;0.50;0.50;;;16.70;60.90;;;17.06;45.69;95817.63;4995029;28;20223;-78
2022/08/10 01:55:04;;;;;;;0.57;0.57;;;16.60;60.80;;;17.05;45.56;95811.53;5043277;28;20685;-77
2022/08/10 01:57:33;;;;;;;0.50;0.50;;;16.60;60.90;;;17.05;45.82;95811.53;5045752;28;20274;-78
2022/08/10 02:00:01;;;;;;;0.50;0.50;;;16.60;60.90;;;17.02;46.12;95803.97;5034677;28;20412;-78
2022/08/10 02:02:34;;;;;;;0.50;0.50;;;16.60;60.80;;;17.04;45.93;95809.06;5014465;28;20246;-78
2022/08/10 02:05:04;;;;;;;0.50;0.50;;;16.70;60.90;;;17.04;46.04;95798.47;5014719;28;20207;-78
2022/08/10 02:07:33;;;;;;;0.50;0.50;;;16.50;60.80;;;17.02;46.16;95805.81;4998400;28;20231;-78
2022/08/10 02:10:11;;;;;;;0.50;0.50;;;16.60;60.80;;;16.99;46.37;95801.75;5067021;28;20204;-78
2022/08/10 02:12:40;;;;;;;0.50;0.50;;;16.60;60.80;;;16.99;46.42;95806.22;5067257;28;20225;-77
2022/08/10 02:15:16;;;;;;;0.50;0.50;;;16.60;60.90;;;16.96;46.59;95808.28;5033177;28;20654;-78
2022/08/10 02:17:52;;;;;;;0.50;0.50;;;16.50;61.30;;;16.96;46.11;95804.81;5034043;28;20269;-77
2022/08/10 02:20:39;;;;;;;0.52;0.52;;;16.50;61.30;;;16.90;46.43;95800.31;5065216;28;20254;-78
2022/08/10 02:23:14;;;;;;;0.50;0.50;;;16.50;61.40;;;16.90;46.43;95811.72;5067128;28;20298;-78
2022/08/10 02:25:43;;;;;;;0.50;0.50;;;16.50;60.90;;;16.89;46.64;95807.44;5029800;28;20286;-78
2022/08/10 02:28:19;;;;;;;0.57;0.57;;;16.50;60.80;;;16.88;46.41;95813.78;5017203;28;20192;-79
2022/08/10 02:31:13;;;;;;;0.60;0.60;;;16.50;61.50;;;16.84;46.42;95812.56;5033667;28;20226;-78
2022/08/10 02:33:44;;;;;;;0.60;0.60;;;16.50;61.30;;;16.82;46.54;95811.97;5033158;28;20188;-78
2022/08/10 02:36:31;;;;;;;0.50;0.50;;;16.50;61.00;;;16.80;46.95;95816.66;5048155;28;20224;-78
2022/08/10 02:39:03;;;;;;;0.50;0.50;;;16.40;61.70;;;16.79;47.06;95812.38;5066791;28;20334;-78
2022/08/10 02:41:46;;;;;;;0.50;0.50;;;16.40;61.40;;;16.77;47.01;95817.06;5049180;28;20223;-78
2022/08/10 02:45:03;;;;;;;0.50;0.50;;;16.40;61.70;;;16.72;47.01;95823.03;5040128;28;20196;-77
2022/08/10 02:48:00;;;;;;;0.60;0.60;;;16.30;61.70;;;16.68;46.92;95819.13;5062186;28;20235;-78
2022/08/10 02:50:40;;;;;;;0.60;0.60;;;16.30;61.20;;;16.66;47.22;95818.53;5021054;28;20191;-78
2022/08/10 02:53:36;;;;;;;0.50;0.50;;;16.30;61.90;;;16.64;46.96;95824.03;5026821;28;20303;-78
2022/08/10 02:56:41;;;;;;;0.55;0.55;;;16.30;62.00;;;16.59;47.37;95826.50;5047207;28;20302;-78
2022/08/10 02:59:14;;;;;;;0.50;0.50;;;16.20;61.40;;;16.58;47.52;95824.88;5033426;28;20269;-78
2022/08/10 03:01:47;;;;;;;0.60;0.60;;;16.20;61.90;;;16.57;47.39;95825.88;5032072;28;20216;-78
2022/08/10 03:04:38;;;;;;;0.50;0.50;;;16.20;62.00;;;16.55;47.31;95824.47;5029947;28;20238;-78
2022/08/10 03:07:35;;;;;;;0.50;0.50;;;16.20;62.10;;;16.54;47.24;95820.19;5019385;28;20251;-78
2022/08/10 03:10:24;;;;;;;0.60;0.60;;;16.10;62.00;;;16.52;47.74;95833.63;5018054;28;20188;-77
2022/08/10 03:12:58;;;;;;;0.50;0.50;;;16.20;62.20;;;16.47;47.94;95826.31;5012277;28;20232;-78
2022/08/10 03:15:29;;;;;;;0.50;0.50;;;16.10;62.10;;;16.47;48.14;95823.66;5013233;28;20200;-78
2022/08/10 03:17:57;;;;;;;0.60;0.60;;;16.10;62.30;;;16.47;47.79;95825.50;5013009;28;20279;-78
2022/08/10 03:20:30;;;;;;;0.60;0.60;;;16.10;62.20;;;16.43;47.98;95825.09;5012615;28;20252;-78
2022/08/10 03:23:10;;;;;;;0.50;0.50;;;16.10;62.50;;;16.39;48.15;95823.06;5027272;28;20287;-78
2022/08/10 03:25:38;;;;;;;0.60;0.60;;;16.00;62.40;;;16.42;48.03;95826.13;4996951;28;20184;-78
2022/08/10 03:28:06;;;;;;;0.60;0.60;;;16.00;62.20;;;16.42;47.98;95825.31;4996338;28;20212;-78
2022/08/10 03:30:33;;;;;;;0.60;0.60;;;16.00;62.30;;;16.40;48.10;95828.16;5033411;28;20191;-78
2022/08/10 03:33:04;;;;;;;0.50;0.50;;;16.00;62.20;;;16.39;47.97;95823.06;5016387;28;20179;-78
2022/08/10 03:35:31;;;;;;;0.50;0.50;;;16.00;62.60;;;16.39;48.04;95833.66;5015933;28;20203;-78
2022/08/10 03:37:59;;;;;;;0.50;0.50;;;16.00;62.50;;;16.38;48.34;95837.31;4999187;28;20204;-78
2022/08/10 03:40:29;;;;;;;0.50;0.50;;;16.00;62.40;;;16.36;48.28;95834.09;5033549;28;20211;-78
2022/08/10 03:43:17;;;;;;;0.57;0.57;;;16.00;62.70;;;16.31;48.83;95832.84;5032334;28;20207;-79
2022/08/10 03:45:52;;;;;;;0.50;0.50;;;16.00;62.90;;;16.31;48.59;95832.84;5065421;28;20200;-77
2022/08/10 03:48:25;;;;;;;0.50;0.50;;;16.00;62.80;;;16.32;48.60;95837.13;5062139;28;20278;-78
2022/08/10 03:51:13;;;;;;;0.50;0.50;;;15.90;62.70;;;16.31;48.62;95837.34;5032695;28;20220;-77
2022/08/10 03:53:40;;;;;;;0.50;0.50;;;15.90;62.60;;;16.27;48.88;95836.94;5032366;28;20559;-78
2022/08/10 03:56:29;;;;;;;0.50;0.50;;;15.90;62.70;;;16.26;48.95;95837.13;5051366;28;20743;-78
2022/08/10 03:58:59;;;;;;;0.60;0.60;;;15.90;62.70;;;16.25;48.44;95835.50;5062651;28;20218;-78
2022/08/10 04:01:28;;;;;;;0.40;0.40;;;15.90;62.50;;;16.24;48.73;95834.69;5027756;28;20216;-78
2022/08/10 04:04:16;;;;;;;0.60;0.60;;;15.90;62.80;;;16.21;48.89;95835.09;5016755;28;20196;-78
2022/08/10 04:06:52;;;;;;;0.70;0.70;;;15.90;62.60;;;16.22;49.10;95838.56;5014221;28;20231;-78
2022/08/10 04:09:25;;;;;;;0.50;0.50;;;15.90;62.80;;;16.19;49.47;95836.34;5018266;28;20198;-78
2022/08/10 04:12:13;;;;;;;0.50;0.50;;;15.90;63.10;;;16.15;49.09;95838.56;5028052;28;20636;-78
2022/08/10 04:14:40;;;;;;;0.50;0.50;;;15.80;62.80;;;16.15;49.34;95834.06;5019403;28;20196;-78
2022/08/10 04:17:16;;;;;;;0.50;0.50;;;15.80;62.90;;;16.12;49.34;95831.03;5018264;28;20227;-78
2022/08/10 04:19:48;;;;;;;0.50;0.50;;;15.80;63.00;;;16.11;49.27;95838.16;5032716;28;20685;-77
2022/08/10 04:22:23;;;;;;;0.50;0.50;;;15.80;63.40;;;16.11;49.12;95835.53;5030638;28;20638;-78
2022/08/10 04:24:59;;;;;;;0.50;0.50;;;15.80;63.50;;;16.10;49.47;95833.88;5002676;28;20365;-78
2022/08/10 04:27:27;;;;;;;0.50;0.50;;;15.80;63.30;;;16.11;49.35;95837.34;5015139;28;20223;-78
2022/08/10 04:29:55;;;;;;;0.50;0.50;;;15.80;63.20;;;16.12;49.24;95845.06;5060597;28;20688;-78
2022/08/10 04:32:26;;;;;;;0.50;0.50;;;15.80;63.40;;;16.11;49.40;95838.16;5031646;28;20704;-78
2022/08/10 04:34:56;;;;;;;0.60;0.60;;;15.80;63.50;;;16.13;49.31;95838.75;5036246;28;20221;-78
2022/08/10 04:37:24;;;;;;;0.40;0.40;;;15.80;63.60;;;16.17;49.84;95844.47;5018000;28;20716;-77
2022/08/10 04:39:51;;;;;;;0.60;0.60;;;15.80;63.80;;;16.21;49.74;95844.88;5048505;28;20238;-78
2022/08/10 04:42:19;;;;;;;0.50;0.50;;;15.80;63.60;;;16.24;49.82;95847.13;5018440;28;20653;-78
2022/08/10 04:44:46;;;;;;;0.50;0.50;;;15.90;63.80;;;16.25;49.40;95844.25;5049222;28;20723;-78
2022/08/10 04:47:13;;;;;;;0.50;0.50;;;15.80;63.70;;;16.30;49.88;95841.81;5060352;28;20287;-78
2022/08/10 04:50:00;;;;;;;0.50;0.50;;;15.90;63.90;;;16.31;50.25;95838.13;5056695;28;20202;-78
2022/08/10 04:52:28;;;;;;;0.50;0.50;;;16.00;64.00;;;16.33;49.86;95838.75;5048526;28;20219;-78
2022/08/10 04:54:55;;;;;;;0.50;0.50;;;16.00;64.00;;;16.37;49.76;95843.63;5018430;28;20195;-79
2022/08/10 04:57:23;;;;;;;0.50;0.50;;;16.00;64.00;;;16.41;49.92;95842.22;5037179;28;20302;-78
2022/08/10 04:59:50;;;;;;;0.57;0.57;;;16.00;64.20;;;16.43;50.16;95840.16;5015110;28;20322;-78
2022/08/10 05:02:18;;;;;;;0.52;0.52;;;16.10;64.20;;;16.51;50.18;95847.09;5031214;28;20222;-78
2022/08/10 05:05:05;;;;;;;0.50;0.50;;;16.10;64.20;;;16.57;49.95;95848.91;5021009;28;20192;-78
2022/08/10 05:07:32;;;;;;;0.70;0.70;;;16.20;64.30;;;16.65;50.28;95851.34;5014750;28;20319;-78
2022/08/10 05:10:17;;;;;;;0.50;0.50;;;16.20;64.40;;;16.70;50.65;95843.59;5015295;28;20283;-78
2022/08/10 05:12:45;;;;;;;0.50;0.50;;;16.30;64.70;;;16.80;50.66;95843.97;5033688;28;20265;-78
2022/08/10 05:15:14;;;;;;;0.50;0.50;;;16.40;64.90;;;16.92;50.73;95843.38;5016222;28;20283;-78
2022/08/10 05:17:42;;;;;;;0.50;0.50;;;16.50;65.10;;;17.01;50.49;95847.41;5060161;28;20223;-78
2022/08/10 05:20:29;;;;;;;0.50;0.50;;;16.60;65.00;;;17.10;50.48;95859.41;5038879;28;20303;-78
2022/08/10 05:22:56;;;;;;;0.50;0.50;;;16.70;64.80;;;17.20;50.79;95851.00;5031838;28;20216;-78
2022/08/10 05:25:23;;;;;;;0.50;0.50;;;16.80;64.90;;;17.29;50.34;95844.44;5031337;28;20222;-77
2022/08/10 05:27:52;;;;;;;0.50;0.50;;;16.90;65.00;;;17.36;50.85;95843.63;5034648;28;20282;-78
2022/08/10 05:30:23;;;;;;;0.50;0.50;;;16.90;65.00;;;17.46;50.94;95851.91;5030944;28;20223;-78
2022/08/10 05:32:50;;;;;;;0.50;0.50;;;17.00;65.10;;;17.55;50.50;95850.66;5025856;28;20219;-78
2022/08/10 05:35:28;;;;;;;0.50;0.50;;;17.10;65.00;;;17.67;50.89;95842.00;5008256;28;20639;-78
2022/08/10 05:38:17;;;;;;;0.50;0.50;;;17.20;65.00;;;17.80;50.83;95838.44;5021599;28;20196;-77
2022/08/10 05:40:45;;;;;;;0.50;0.50;;;17.40;65.10;;;17.89;50.74;95831.84;5044002;28;20216;-78
2022/08/10 05:43:22;;;;;;;0.60;0.60;;;17.50;65.00;;;18.10;50.93;95845.81;5049959;28;20531;-78
2022/08/10 05:45:51;;;;;;;0.50;0.50;;;17.60;64.90;;;18.23;50.61;95840.41;5064951;28;20318;-78
2022/08/10 05:48:40;;;;;;;0.47;0.47;;;17.70;64.70;;;18.39;50.71;95842.53;5038826;28;20194;-77
2022/08/10 05:51:25;;;;;;;0.50;0.50;;;17.90;64.70;;;18.53;50.55;95829.94;5040231;28;20217;-78
2022/08/10 05:53:53;;;;;;;0.45;0.45;;;18.10;64.60;;;18.65;50.47;95840.66;5025626;28;20803;-77
2022/08/10 05:56:37;;;;;;;0.43;0.43;;;18.20;64.60;;;18.82;49.89;95843.56;5039573;28;20207;-78
2022/08/10 05:59:32;;;;;;;0.47;0.47;;;18.40;64.40;;;18.94;49.83;95848.16;5044474;28;20220;-77
2022/08/10 06:02:29;;;;;;;0.50;0.50;;;18.50;64.30;;;19.07;49.49;95841.88;5014291;28;20753;-78
2022/08/10 06:05:14;;;;;;;0.43;0.43;;;18.60;64.00;;;19.18;50.00;95841.94;5010913;28;20203;-78
2022/08/10 06:07:59;;;;;;;0.43;0.43;;;18.80;63.90;;;19.29;49.97;95840.38;5024513;28;20208;-78
2022/08/10 06:10:30;;;;;;;0.40;0.40;;;18.90;63.80;;;19.41;49.43;95840.44;5024243;28;20211;-78
2022/08/10 06:16:25;;;;;;;0.40;0.40;;;19.10;63.60;;;19.71;49.51;95844.13;5039561;28;20299;-78
2022/08/10 06:18:54;;;;;;;0.40;0.40;;;19.30;63.40;;;19.81;49.22;95842.53;5065920;28;20594;-78
2022/08/10 06:21:21;;;;;;;0.45;0.45;;;19.40;63.30;;;19.93;48.68;95841.78;5020225;28;20321;-77
2022/08/10 06:23:51;;;;;;;0.50;0.50;;;19.50;63.20;;;20.00;48.65;95839.84;5042493;28;20195;-78
2022/08/10 06:26:18;;;;;;;0.40;0.40;;;19.60;63.20;;;20.12;49.15;95845.19;5047788;28;20215;-78
2022/08/10 06:29:06;;;;;;;0.40;0.40;;;19.70;63.20;;;20.22;48.73;95840.09;5018301;28;20200;-78
2022/08/10 06:31:38;;;;;;;0.40;0.40;;;19.80;63.30;;;20.31;48.73;95833.41;5032885;28;20630;-78
2022/08/10 06:34:38;;;;;;;0.40;0.40;;;20.00;63.50;;;20.46;48.54;95843.59;5050429;28;20204;-78
2022/08/10 06:37:07;;;;;;;0.40;0.40;;;20.10;63.50;;;20.59;48.66;95839.06;5048357;28;20239;-79
2022/08/10 06:39:35;;;;;;;0.30;0.30;;;20.20;63.60;;;20.73;48.68;95845.03;5065653;28;20705;-78
2022/08/10 06:42:26;;;;;;;0.40;0.40;;;20.40;63.30;;;20.83;48.57;95837.25;5032732;28;20338;-79
2022/08/10 06:45:17;;;;;;;0.40;0.40;;;20.50;63.20;;;20.99;48.43;95841.03;5034026;28;20196;-79
2022/08/10 06:48:05;;;;;;;0.30;0.30;;;20.70;63.10;;;21.15;48.25;95842.16;5002094;28;20226;-78
2022/08/10 06:50:47;;;;;;;0.30;0.30;;;20.80;63.00;;;21.28;47.88;95841.88;5018580;28;20696;-78
2022/08/10 06:53:30;;;;;;;0.40;0.40;;;21.00;63.00;;;21.46;47.97;95847.28;5062598;28;20202;-77
2022/08/10 06:56:21;;;;;;;0.30;0.30;;;21.10;62.50;;;21.63;47.59;95839.38;5059853;28;20230;-78
2022/08/10 06:59:37;;;;;;;0.30;0.30;;;21.30;62.70;;;21.82;47.43;95846.13;5025576;28;20199;-77
2022/08/10 07:02:13;;;;;;;0.40;0.40;;;21.50;62.30;;;21.98;46.91;95838.38;5032402;28;20584;-77
2022/08/10 07:05:00;;;;;;;0.40;0.40;;;21.70;62.10;;;22.10;46.82;95836.44;5030846;28;20288;-77
2022/08/10 07:07:30;;;;;;;0.60;0.60;;;21.80;62.00;;;22.24;47.08;95842.31;5028786;28;20254;-78
2022/08/10 07:10:00;;;;;;;0.40;0.40;;;21.90;61.70;;;22.35;46.37;95844.06;5023097;28;20202;-78
2022/08/10 07:12:32;;;;;;;0.40;0.40;;;22.00;61.50;;;22.45;46.35;95837.28;5045239;28;20233;-79
2022/08/10 07:15:01;;;;;;;0.40;0.40;;;22.20;61.70;;;22.54;46.31;95836.66;5031161;28;20314;-77
2022/08/10 07:17:31;;;;;;;0.40;0.40;;;22.20;61.40;;;22.62;45.97;95829.25;5033225;28;20216;-77
2022/08/10 07:20:08;;;;;;;0.40;0.40;;;22.30;61.10;;;22.69;45.80;95833.38;5028381;28;20567;-77
2022/08/10 07:22:39;;;;;;;0.30;0.30;;;22.40;61.00;;;22.78;46.01;95841.78;5016686;28;20218;-77
2022/08/10 07:25:28;;;;;;;0.40;0.40;;;22.50;61.10;;;22.86;45.30;95840.53;5017289;28;20710;-78
2022/08/10 07:27:58;;;;;;;0.40;0.40;;;22.60;60.80;;;22.91;45.61;95837.97;5015176;28;20204;-78
2022/08/10 07:30:31;;;;;;;0.40;0.40;;;22.70;60.70;;;22.96;45.18;95838.03;5029930;28;20203;-78
2022/08/10 07:33:01;;;;;;;0.30;0.30;;;22.70;60.40;;;23.01;45.23;95832.72;5007811;28;20289;-79
2022/08/10 07:35:30;;;;;;;0.30;0.30;;;22.70;60.20;;;23.02;44.74;95839.69;5038832;28;20561;-80
2022/08/10 07:38:24;;;;;;;0.60;0.60;;;22.80;60.20;;;23.02;44.75;95837.03;5023248;28;20863;-78
2022/08/10 07:40:53;;;;;;;0.30;0.30;;;22.80;60.00;;;23.08;44.50;95842.44;5019888;28;20229;-79
2022/08/10 07:43:26;;;;;;;0.40;0.40;;;22.80;59.90;;;23.12;44.15;95849.72;5016995;28;20215;-79
2022/08/10 07:45:56;;;;;;;0.40;0.40;;;22.80;59.60;;;23.17;43.87;95843.66;5011441;28;20229;-79
2022/08/10 07:48:30;;;;;;;0.30;0.30;;;22.90;59.30;;;23.25;43.98;95845.88;5039428;28;20674;-79
2022/08/10 07:51:00;;;;;;;0.40;0.40;;;22.90;59.40;;;23.36;43.55;95840.66;5022938;28;20341;-78
2022/08/10 07:53:37;;;;;;;0.40;0.40;;;23.00;59.50;;;23.42;44.02;95837.78;5028848;28;20218;-79
2022/08/10 07:56:06;;;;;;;0.40;0.40;;;23.10;59.40;;;23.55;43.85;95839.28;5026502;28;20269;-78
2022/08/10 07:58:53;;;;;;;0.40;0.40;;;23.20;59.40;;;23.62;43.46;95837.22;5040851;28;20196;-79
2022/08/10 08:01:30;;;;;;;0.30;0.30;;;23.30;58.90;;;23.77;43.35;95838.44;5024187;28;20309;-78
2022/08/10 08:04:00;;;;;;;0.47;0.47;;;23.40;58.50;;;23.87;42.88;95835.84;4998836;28;20192;-79
2022/08/10 08:06:40;;;;;;;0.30;0.30;;;23.50;58.30;;;24.00;42.60;95836.50;5022868;28;20233;-77
2022/08/10 08:09:09;;;;;;;0.30;0.30;;;23.70;58.00;;;24.10;42.63;95839.28;5037444;28;20207;-78
2022/08/10 08:11:42;;;;;;;0.38;0.38;;;23.80;58.10;;;24.16;42.48;95838.28;5048568;28;20579;-78
2022/08/10 08:14:10;;;;;;;0.50;0.50;;;23.80;57.90;;;24.27;42.10;95831.13;5052347;28;20202;-79
2022/08/10 08:16:44;;;;;;;0.30;0.30;;;24.00;57.50;;;24.38;41.70;95835.50;5049302;28;20219;-79
2022/08/10 08:19:13;;;;;;;0.40;0.40;;;24.10;57.20;;;24.45;41.59;95840.66;5034426;28;20291;-79
2022/08/10 08:22:01;;;;;;;0.30;0.30;;;24.10;56.80;;;24.54;41.43;95836.41;5015839;28;20238;-79
2022/08/10 08:24:50;;;;;;;0.35;0.35;;;24.20;56.60;;;24.62;41.08;95835.13;5025399;28;20200;-79
2022/08/10 08:27:19;;;;;;;0.38;0.38;;;24.40;56.20;;;24.72;40.84;95837.09;5030531;28;20643;-78
2022/08/10 08:29:50;;;;;;;0.30;0.30;;;24.50;56.20;;;24.80;40.85;95838.47;5013294;28;20203;-78
2022/08/10 08:32:22;;;;;;;0.30;0.30;;;24.50;56.00;;;24.88;40.35;95829.94;5016251;28;20972;-78
2022/08/10 08:34:56;;;;;;;0.30;0.30;;;24.60;55.70;;;24.99;40.15;95831.59;5016188;28;20321;-78
2022/08/10 08:37:28;;;;;;;0.30;0.30;;;24.70;55.40;;;25.09;40.21;95828.16;5010829;28;20250;-78
2022/08/10 08:40:29;;;;;;;0.30;0.30;;;24.80;55.40;;;25.17;40.05;95827.66;5029026;28;20222;-78
2022/08/10 08:43:30;;;;;;;0.35;0.35;;;24.90;55.30;;;25.25;39.29;95827.16;5031812;28;20923;-77
2022/08/10 08:46:16;;;;;;;0.30;0.30;;;25.00;54.60;;;25.33;39.28;95828.53;4999764;28;20238;-78
2022/08/10 08:49:16;;;;;;;0.30;0.30;;;25.10;54.30;;;25.38;39.07;95830.47;5017749;28;20203;-78
2022/08/10 08:52:25;;;;;;;0.30;0.30;;;25.20;53.90;;;25.42;38.67;95826.16;5029567;28;20711;-78
2022/08/10 08:55:15;;;;;;;0.30;0.30;;;25.30;53.30;;;25.47;38.93;95828.06;5017711;28;20203;-79
2022/08/10 08:58:27;;;;;;;0.30;0.30;;;25.30;53.70;;;25.50;38.45;95822.16;5023646;28;20259;-79
2022/08/10 09:01:22;;;;;;;0.30;0.30;;;25.40;53.80;;;25.57;38.64;95823.53;5030984;28;20240;-79
2022/08/10 09:05:03;;;;;;;0.30;0.30;;;25.40;53.60;;;25.64;38.55;95823.25;5040607;28;20214;-79
2022/08/10 09:08:05;;;;;;;0.30;0.30;;;25.50;53.50;;;25.70;38.30;95819.50;5031060;28;20219;-79
2022/08/10 09:10:59;;;;;;;0.30;0.30;;;25.60;53.20;;;25.71;38.24;95812.28;5031142;28;20643;-79
2022/08/10 09:13:33;;;;;;;0.30;0.30;;;25.60;53.00;;;25.75;37.91;95823.28;5047742;28;20207;-78
2022/08/10 09:16:21;;;;;;;0.30;0.30;;;25.60;52.90;;;25.76;37.72;95825.72;5014706;28;20274;-79
2022/08/10 09:19:22;;;;;;;0.30;0.30;;;25.60;52.50;;;25.81;37.88;95811.47;5018926;28;20197;-79
2022/08/10 09:22:28;;;;;;;0.32;0.32;;;25.60;52.20;;;25.87;38.04;95826.53;5015172;28;20671;-80
2022/08/10 09:25:36;;;;;;;0.30;0.30;;;25.70;53.00;;;26.02;38.45;95814.97;5015347;28;20197;-80
2022/08/10 09:28:10;;;;;;;0.30;0.30;;;25.80;53.50;;;26.17;37.74;95815.03;5038480;28;20237;-79
2022/08/10 09:30:43;;;;;;;0.30;0.30;;;25.90;52.20;;;26.32;37.58;95814.22;5016453;28;20197;-78
2022/08/10 09:33:55;;;;;;;0.30;0.30;;;26.00;51.80;;;26.46;37.26;95811.75;5021617;28;20560;-80
2022/08/10 09:37:05;;;;;;;0.30;0.30;;;26.20;51.20;;;26.52;35.98;95807.19;5016184;28;20240;-78
2022/08/10 09:39:53;;;;;;;0.32;0.32;;;26.30;50.80;;;26.51;35.04;95809.09;5019811;28;20719;-78
2022/08/10 09:43:06;;;;;;;0.30;0.30;;;26.40;49.70;;;26.50;35.84;95802.09;5012676;28;20223;-79
2022/08/10 09:46:05;;;;;;;0.30;0.30;;;26.40;49.80;;;26.56;36.04;95786.72;5021519;28;20362;-79
2022/08/10 09:49:01;;;;;;;0.30;0.30;;;26.50;50.20;;;26.63;35.68;95791.84;5018653;28;20220;-78
2022/08/10 09:51:56;;;;;;;0.30;0.30;;;26.50;50.80;;;26.72;35.55;95794.75;5014295;28;20634;-79
2022/08/10 09:55:03;;;;;;;0.30;0.30;;;26.60;50.20;;;26.87;35.42;95794.75;5031184;28;20620;-78
2022/08/10 09:57:52;;;;;;;0.30;0.30;;;26.70;50.00;;;26.99;35.27;95787.19;5023804;28;20281;-78
2022/08/10 10:00:34;;;;;;;0.30;0.30;;;26.80;49.20;;;27.04;34.85;95790.91;5036180;28;20685;-78
2022/08/10 10:03:32;;;;;;;0.40;0.40;;;26.80;48.80;;;27.06;34.82;95788.75;5030045;28;20223;-79
2022/08/10 10:06:23;;;;;;;0.30;0.30;;;26.90;49.50;;;27.06;34.60;95792.28;5028561;28;20235;-78
2022/08/10 10:09:18;;;;;;;0.30;0.30;;;26.90;48.60;;;26.98;34.49;95784.75;5019710;28;20207;-80
2022/08/10 10:12:40;;;;;;;0.32;0.32;;;26.90;48.70;;;26.96;34.42;95785.03;5018934;28;20227;-79
2022/08/10 10:15:25;;;;;;;0.30;0.30;;;26.90;48.80;;;27.01;34.46;95792.28;5052683;28;20293;-78
2022/08/10 10:18:01;;;;;;;0.30;0.30;;;26.90;48.00;;;27.04;34.29;95783.66;5008073;28;20208;-79
2022/08/10 10:20:44;;;;;;;0.30;0.30;;;26.90;47.90;;;27.08;34.58;95782.03;5035249;28;20305;-79
2022/08/10 10:23:48;;;;;;;0.30;0.30;;;27.00;48.30;;;27.16;34.46;95783.34;5028661;28;20324;-78
2022/08/10 10:26:58;;;;;;;0.30;0.30;;;27.10;48.60;;;27.20;34.39;95775.53;5046736;28;20226;-79
2022/08/10 10:30:03;;;;;;;0.30;0.30;;;27.10;47.60;;;27.25;34.02;95778.97;5033634;28;20211;-79
2022/08/10 10:32:33;;;;;;;0.40;0.40;;;27.10;48.00;;;27.32;33.76;95782.19;5018331;28;20235;-80
2022/08/10 10:35:26;;;;;;;0.30;0.30;;;27.20;47.50;;;27.36;34.29;95784.34;5049808;28;20290;-80
2022/08/10 10:37:56;;;;;;;0.20;0.20;;;27.20;48.10;;;27.38;33.72;95774.06;5066938;28;20199;-80
2022/08/10 10:41:10;;;;;;;0.30;0.30;;;27.20;47.10;;;27.31;33.37;95771.69;5063358;28;20222;-79
2022/08/10 10:44:00;;;;;;;0.30;0.30;;;27.30;47.50;;;27.31;33.53;95769.00;5048312;28;20617;-78
2022/08/10 10:47:13;;;;;;;0.32;0.32;;;27.30;46.60;;;27.33;32.98;95774.88;5030279;28;20726;-79
2022/08/10 10:50:18;;;;;;;0.30;0.30;;;27.30;46.80;;;27.41;32.92;95757.38;5030580;28;20251;-79
2022/08/10 10:53:23;;;;;;;0.30;0.30;;;27.30;46.80;;;27.54;32.78;95766.72;5040554;28;20223;-80
2022/08/10 10:56:18;;;;;;;0.30;0.30;;;27.40;47.00;;;27.72;33.35;95767.97;5051638;28;20246;-79
2022/08/10 10:59:16;;;;;;;0.30;0.30;;;27.50;47.30;;;27.92;33.53;95754.31;5040978;28;20207;-78
2022/08/10 11:02:03;;;;;;;0.35;0.35;;;27.70;46.50;;;28.13;32.67;95748.00;5005962;28;20610;-78
2022/08/10 11:04:59;;;;;;;0.30;0.30;;;27.90;46.20;;;28.30;32.51;95748.38;5029656;28;20207;-79
2022/08/10 11:07:37;;;;;;;0.30;0.30;;;28.00;45.80;;;28.48;32.56;95756.81;5028327;28;20238;-79
2022/08/10 11:10:10;;;;;;;0.30;0.30;;;28.20;45.60;;;28.56;31.98;95746.22;5024312;28;20195;-80
2022/08/10 11:13:14;;;;;;;0.40;0.40;;;28.30;45.70;;;28.60;32.17;95754.56;5033254;28;20592;-79
2022/08/10 11:16:29;;;;;;;0.30;0.30;;;28.40;45.20;;;28.53;31.66;95748.69;5041724;28;20225;-80
2022/08/10 11:19:18;;;;;;;0.30;0.30;;;28.50;45.90;;;28.52;32.17;95738.97;5020047;28;20663;-80
2022/08/10 11:22:17;;;;;;;0.40;0.40;;;28.50;45.00;;;28.46;31.58;95743.63;5052815;28;20254;-80
2022/08/10 11:25:00;;;;;;;0.30;0.30;;;28.50;44.80;;;28.39;31.52;95738.56;5031353;28;20620;-78